x

Cal Poly Pier, Ca (cpxc1) Weather Station

9:21pm - Sun 25th Sep 2016 All times are PDT. -7 hours from GMT.

  • Wind
    2mph
  • Air Temp 63°f
  • Sea Pressure 1016.2mb
  • Cal Poly Pier, Ca
  • Cal Poly Pier, Ca

More Historic Weather Station data

Upgrade to MSW Pro to gain access to the past 30 days of data for over 8000 Wavebouys and Weather Stations around the globe.

Join Pro

Comparision Forecast

View Surf forecast
   
Sun 09/25 9:21pm 2
mph
1016.2mb 63f
9:07pm  -  2 mph 1016.2mb 64f
8:54pm 6
mph
1015.8mb 65f
8:50pm 5 6 mph 1016mb 65f
8:40pm 2 3 mph 1015.5mb 65f
8:36pm  -  1 mph 1015.5mb 64f
8:22pm 1 2 mph 1015.5mb 65f
8:09pm  -  1 mph 1015.1mb 65f
7:55pm 1 2 mph 1015.1mb 67f
7:41pm 5 6 mph 1015.1mb 66f
7:27pm 5 6 mph 1014.6mb 68f
7:24pm 5
mph
1014.8mb 68f
7:14pm 2
mph
1014.6mb 66f
7:10pm 2 3 mph 1014.6mb 66f
7:00pm 2
mph
1014.6mb 64f
6:56pm 2
mph
1014.6mb 64f
6:42pm 2
mph
1014.6mb 64f
6:29pm 8 10 mph 1014.8mb 65f
6:15pm 5 6 mph 1014.6mb 65f
6:01pm 11 13 mph 1014.8mb 65f
5:47pm 9 10 mph 1014.4mb 68f
5:44pm 6 8 mph 1014.4mb 68f
5:34pm 6 7 mph 1014.6mb 74f
5:30pm 1 2 mph 1014.8mb 72f
5:20pm 5 8 mph 1014.6mb 76f
5:16pm 2 3 mph 1014.6mb 79f
5:02pm 7 8 mph 1014.6mb 76f
4:49pm 6 8 mph 1015mb 81f
4:21pm 2 3 mph 1015mb 85f
4:07pm 6 8 mph 1015.1mb 89f
4:04pm 6 7 mph 1015mb 90f
3:54pm 5 6 mph 1015.1mb 89f
3:50pm 8 10 mph 1015.3mb 90f
3:36pm 7 8 mph 1015.3mb 90f
3:22pm 11 15 mph 1015.5mb 90f
3:09pm 13 15 mph 1015.5mb 89f
2:55pm 10 15 mph 1015.6mb 89f
2:41pm 10 13 mph 1015.6mb 88f
2:37pm 10 14 mph 1015.8mb 89f
2:27pm 10 13 mph 1016mb 89f
2:24pm 11 17 mph 1016mb 89f
2:10pm 9 10 mph 1016.2mb 86f
1:56pm 11 15 mph 1016mb 87f
1:42pm 10 11 mph 1016.3mb 87f
1:29pm 13 14 mph 1016.7mb 88f
1:15pm 9 10 mph 1016.7mb 88f
1:11pm 10
mph
1016.9mb 88f
1:01pm 10
mph
1016.7mb 89f
12:57pm 9 10 mph 1017mb 88f
12:44pm 10 11 mph 1017.2mb 85f
12:30pm 2
mph
1017.2mb 79f
12:16pm 1 2 mph 1017mb 77f
12:02pm 2
mph
1017.2mb 75f
11:59am 1 2 mph 1017mb 75f
11:49am  -  1 mph 1017.4mb 74f
11:45am 1 2 mph 1017.2mb 74f
11:31am  -  1 mph 1017mb 72f
11:17am  -  2 mph 1017.4mb 74f
11:04am  -  1 mph 1017.4mb 73f
10:50am 2 3 mph 1017.5mb 71f
10:46am 2
mph
1017.4mb 69f
10:36am 2
mph
1017.5mb 67f
10:32am 3
mph
1017.9mb 67f
10:19am  -  1 mph 1017.4mb 72f
10:05am  -  1 mph 1017.5mb 69f
9:51am  -  2 mph 1017.5mb 67f
9:37am 2 3 mph 1017.7mb 66f
9:34am 2
mph
1017.4mb 66f
9:24am 2
mph
1017.5mb 69f
9:20am 2 3 mph 1017.4mb 70f
9:06am 2 3 mph 1017.5mb 72f
8:52am 5
mph
1017.2mb 72f
8:39am 3 5 mph 1017.2mb 67f
8:25am 2
mph
1017.4mb 68f
8:21am 2 3 mph 1017.5mb 68f
8:11am 3 5 mph 1017.2mb 65f
8:07am 5
mph
1017.4mb 65f
7:54am 9 10 mph 1017mb 65f
7:40am 9 10 mph 1016.9mb 65f
7:26am 7 8 mph 1016.7mb 63f
7:12am 5 6 mph 1016.5mb 63f
7:09am 6
mph
1016.5mb 62f
6:59am 6
mph
1016.5mb 63f
6:55am 7 8 mph 1016.3mb 63f
6:41am 5 6 mph 1016.3mb 62f
6:27am 5 6 mph 1016mb 62f
6:14am 5
mph
1015.8mb 64f
6:00am 5 7 mph 1015.6mb 65f
5:46am 9 10 mph 1015.5mb 68f
5:42am 6 8 mph 1015.3mb 66f
5:29am 2 3 mph 1015.5mb 64f
5:15am 5 6 mph 1015.5mb 63f
5:01am 3
mph
1015.5mb 61f
4:47am 2 3 mph 1015.5mb 60f
4:34am  -  1 mph 1015.3mb 61f
4:30am  -  1 mph 1015.3mb 61f
4:20am 2
mph
1015.3mb 62f
4:16am 2
mph
1015.3mb 62f
4:02am  -  1 mph 1015.3mb 65f
3:48am 1 2 mph 1015.3mb 63f
3:35am  -  1 mph 1015.3mb 63f
3:21am 3 5 mph 1015.5mb 62f
3:17am 5
mph
1015.5mb 63f
3:07am 3 5 mph 1015.6mb 62f
3:03am 5
mph
1015.5mb 63f
2:50am 3 5 mph 1015.6mb 65f
2:36am 2
mph
1015.8mb 67f
2:22am 2 3 mph 1016.2mb 67f
2:08am 3 5 mph 1016mb 68f
2:05am 5 6 mph 1016mb 69f
1:55am 5 6 mph 1016mb 67f
1:51am 2
mph
1016mb 67f
1:37am 3
mph
1016mb 66f
1:23am 5
mph
1016.2mb 66f
1:10am 5 6 mph 1016mb 68f
12:56am 2
mph
1016.5mb 65f
12:42am 2 3 mph 1016.5mb 66f
12:38am  -  1 mph 1016.9mb 66f
12:28am 3 5 mph 1016.7mb 67f
12:25am  -  2 mph 1016.3mb 66f
12:11am 2 5 mph 1016.9mb 66f
Sat 09/24 11:57pm 1 2 mph 1016.5mb 67f
11:43pm 1 2 mph 1016.7mb 64f
11:30pm  -  1 mph 1016.9mb 63f
11:26pm 2
mph
1016.7mb 63f
11:16pm 2
mph
1016.7mb 63f
11:12pm 2
mph
1016.9mb 63f
11:02pm 2 3 mph 1017mb 64f
10:58pm 1 2 mph 1017mb 64f
10:45pm  -  1 mph 1016.7mb 64f
10:31pm 2 3 mph 1016.9mb 64f
10:17pm 2
mph
1016.9mb 64f
10:03pm  -  1 mph 1017.2mb 65f
10:00pm  -  1 mph 1016.9mb 65f
9:50pm  -  1 mph 1017mb 65f
9:46pm  -  1 mph 1016.9mb 65f
9:36pm  -  1 mph 1016.9mb 65f
9:32pm 2
mph
1016.9mb 65f
9:18pm 3 5 mph 1016.9mb 66f
9:05pm 3 6 mph 1016.7mb 66f
8:51pm 7 8 mph 1016.7mb 66f
8:37pm 5 6 mph 1016.5mb 65f
8:33pm 5 6 mph 1016.7mb 65f
8:23pm 8 9 mph 1016.2mb 69f
8:20pm 5 6 mph 1016.2mb 70f
8:10pm 3 5 mph 1016mb 70f
8:06pm 3 5 mph 1015.8mb -
7:52pm 2
mph
1016.2mb -
7:38pm 1 3 mph 1015.8mb -
7:25pm 15 16 mph 1015.5mb -
7:11pm 11 13 mph 1015.3mb 78f
6:57pm 8 10 mph 1015.1mb 80f
6:53pm 10 14 mph 1015.1mb 85f
6:43pm 10 14 mph 1015.1mb 85f
6:40pm 10 15 mph 1015mb 85f
6:30pm 11 15 mph 1015.1mb 86f
6:26pm 13 15 mph 1015.1mb 86f
6:12pm 9 11 mph 1015.1mb 87f
5:58pm 8 10 mph 1014.8mb 88f
5:45pm 9 11 mph 1015mb 88f
5:31pm 14 16 mph 1014.8mb 89f
5:17pm 11 16 mph 1014.8mb 89f
5:03pm 15 21 mph 1014.8mb 90f
5:00pm 14 17 mph 1015mb 89f
4:50pm 11 15 mph 1015mb 90f
4:46pm 8 11 mph 1015mb 89f
4:18pm 14 18 mph 1015mb 90f
4:05pm 14 16 mph 1015.1mb 90f
3:51pm 11 17 mph 1014.8mb 91f
3:37pm 11 16 mph 1015mb 90f
3:23pm 10 17 mph 1015.1mb 91f
3:20pm 13 16 mph 1015mb 91f
3:10pm 9 14 mph 1015.1mb 91f
3:06pm 16 22 mph 1015mb 91f
2:52pm 16 21 mph 1015.3mb 91f
2:38pm 14 17 mph 1015.3mb 91f
2:25pm 13 15 mph 1015.6mb 91f
2:11pm 16 18 mph 1015.8mb 90f
1:57pm 14 16 mph 1015.6mb 90f
1:53pm 7 10 mph 1016mb 89f
1:43pm 9 11 mph 1016mb 90f
1:40pm 11 15 mph 1016mb 89f
1:26pm 14 15 mph 1016.2mb 89f
1:12pm 13 17 mph 1016.3mb 89f
12:58pm 7 10 mph 1016.7mb 88f
12:45pm 7 10 mph 1016.7mb 87f
12:31pm 6 8 mph 1017mb 85f
12:27pm  -  2 mph 1017mb 85f
12:17pm 1 2 mph 1017mb 84f
12:13pm 2 5 mph 1017.2mb 82f
12:00pm 3 6 mph 1017.4mb 82f
11:46am 2 5 mph 1017.5mb 79f
11:32am 7 10 mph 1017.5mb 84f
11:18am 2 5 mph 1017.7mb 83f
11:05am 6 7 mph 1017.7mb 80f
11:01am 9 10 mph 1017.9mb 79f
10:51am 10 13 mph 1017.9mb 78f
10:33am 5 6 mph 1018.2mb 77f
10:20am 6 8 mph 1018.1mb 75f
10:06am 2 5 mph 1018.4mb 73f
9:52am 5 7 mph 1018.4mb 72f
9:48am 2
mph
1018.6mb 71f
9:38am 3 5 mph 1018.6mb 71f
9:35am 1 2 mph 1018.4mb 74f
9:21am  -  1 mph 1018.6mb 72f
9:07am 2
mph
1018.6mb 72f
8:53am 1 2 mph 1018.6mb 68f
8:40am 3 5 mph 1018.6mb 70f
8:36am 5 6 mph 1018.6mb 70f
8:26am 6 8 mph 1018.8mb 69f
8:22am 2 3 mph 1018.6mb 69f
8:08am 7 8 mph 1018.6mb 66f
7:55am 7 8 mph 1018.4mb 67f
7:41am 3
mph
1018.2mb 67f
7:27am  -  1 mph 1018.2mb 65f
7:23am  -  2 mph 1018.1mb 65f
7:13am 2 3 mph 1018.1mb 66f
7:10am 3 6 mph 1018.4mb 65f
6:56am 5 6 mph 1017.9mb 66f
6:42am 3 5 mph 1017.9mb 65f
6:28am 3 5 mph 1017.7mb 65f
6:15am  -  2 mph 1017.9mb 66f
6:11am  -  2 mph 1017.9mb 65f
6:01am  -  1 mph 1018.2mb 66f
5:57am  -  1 mph 1017.9mb 66f
5:43am 8 9 mph 1017.7mb 68f
5:30am 1 3 mph 1017.9mb 71f
5:16am 2 3 mph 1018.1mb 70f
5:02am 5
mph
1017.7mb 70f
4:48am 5 6 mph 1017.7mb 69f
4:45am 3 5 mph 1017.9mb 70f
4:31am 3 5 mph 1017.7mb 69f
4:17am 1 2 mph 1018.1mb 70f
4:03am 1
mph
1017.7mb 69f
3:50am  -  1 mph 1017.7mb 69f
3:36am 2 3 mph 1018.2mb 70f
3:32am  -  1 mph 1018.2mb 70f
3:22am 2
mph
1017.9mb 70f
3:18am 2
mph
1018.1mb 71f
3:05am 2 3 mph 1018.1mb 70f
2:51am 1 2 mph 1018.4mb 70f
2:37am 3 5 mph 1018.6mb 71f
2:23am 5 6 mph 1018.4mb 71f
2:20am 5 6 mph 1018.8mb 71f
2:10am 3 5 mph 1018.6mb 70f
2:06am 5 6 mph 1018.6mb 69f
1:52am 2
mph
1018.8mb 71f
1:38am 2 3 mph 1018.6mb 72f
1:25am 2 3 mph 1018.8mb 71f
1:11am 3 5 mph 1018.4mb 72f
1:07am 5 6 mph 1018.4mb 72f
12:57am 1 2 mph 1018.4mb 71f
12:53am 2 3 mph 1018.4mb 72f
12:40am 1 2 mph 1018.6mb 72f
12:26am 5 6 mph 1018.4mb 72f
12:12am  -  2 mph 1018.1mb 72f
Fri 09/23 11:58pm 2 3 mph 1018.4mb 70f
11:45pm 1 2 mph 1018.1mb 71f
11:41pm 1
mph
1018.2mb 71f
11:31pm  -  1 mph 1018.2mb 70f
11:27pm 2 5 mph 1018.6mb 70f
11:13pm 5 6 mph 1018.6mb 69f
11:00pm 5
mph
1018.2mb 69f
10:46pm 5 6 mph 1018.2mb 66f
10:32pm 6
mph
1018.2mb 65f
10:28pm 6
mph
1018.2mb 65f
10:18pm 7 8 mph 1018.2mb 65f
10:15pm 9 10 mph 1018.4mb 64f
10:01pm 6 7 mph 1018.2mb 65f
9:47pm 7 8 mph 1018.2mb 65f
9:33pm 8 9 mph 1018.2mb 65f
9:20pm 8 10 mph 1018.2mb 64f
9:16pm 11
mph
1018.2mb 64f
9:06pm 13 15 mph 1018.1mb 65f
9:02pm 13 14 mph 1018.2mb 65f
8:48pm 10 11 mph 1018.1mb 65f
8:35pm 5 6 mph 1018.4mb 64f
8:21pm 5 6 mph 1018.2mb 65f
8:07pm 2 3 mph 1018.1mb 65f
7:53pm 3
mph
1018.2mb 66f
7:50pm 3
mph
1018.1mb 66f
7:40pm 5 6 mph 1017.9mb 66f
7:36pm 3 5 mph 1018.1mb 66f
7:22pm 7 9 mph 1018.1mb 67f
7:08pm 7 8 mph 1018.1mb 68f
6:55pm 6
mph
1017.9mb 70f
6:41pm 11 13 mph 1017.7mb 71f
6:27pm 2
mph
1017.7mb 74f
6:23pm 2 3 mph 1017.7mb 74f
6:13pm 3 6 mph 1017.7mb 75f
6:10pm 5 6 mph 1017.5mb 75f
5:56pm 11 14 mph 1017.5mb 74f
5:42pm 17 22 mph 1017.5mb 73f
5:28pm 15 18 mph 1017.2mb 74f
5:15pm 21 24 mph 1017.2mb 74f
5:11pm 17 21 mph 1017.2mb 74f
5:01pm 16 18 mph 1017.4mb 75f
4:57pm 18 21 mph 1017.5mb 75f
4:43pm 20 24 mph 1017.4mb 75f
4:30pm 18 21 mph 1017.5mb 75f
4:16pm 20 24 mph 1017.5mb 75f
4:02pm 22 24 mph 1017.5mb 73f
3:48pm 22 25 mph 1017.2mb 74f
3:45pm 22 24 mph 1017.2mb 72f
3:35pm 23 25 mph 1017.2mb 73f
3:31pm 23 25 mph 1017.2mb 72f
3:17pm 24 29 mph 1017.5mb 74f
3:03pm 23 25 mph 1017.4mb 74f
2:50pm 14 16 mph 1017.7mb 75f
2:36pm 16 21 mph 1017.9mb 78f
2:32pm 6 8 mph 1017.9mb 79f
2:22pm 10 14 mph 1018.2mb 78f
2:18pm 15 21 mph 1018.2mb 78f
2:05pm 2 5 mph 1018.2mb 78f
1:51pm 6 8 mph 1018.4mb 78f
1:37pm 8 11 mph 1018.6mb 77f
1:23pm 10 13 mph 1018.9mb 74f
1:10pm 7 8 mph 1018.9mb 74f
1:06pm 10 11 mph 1018.9mb 72f
12:52pm 8 10 mph 1018.9mb 71f
12:38pm 10 13 mph 1019.1mb 70f
12:25pm 13 15 mph 1019.1mb 67f
12:11pm 14 16 mph 1019.4mb 67f
12:07pm 7 10 mph 1019.3mb 67f
11:57am 14 15 mph 1019.1mb 67f
11:53am 14 15 mph 1019.4mb 66f
11:40am 13 14 mph 1019.3mb 67f
11:26am 14 15 mph 1019.3mb 66f
11:12am 11 15 mph 1019.3mb 66f
10:58am 6 7 mph 1019.6mb 65f
10:55am 3 5 mph 1019.4mb 64f
10:45am 8 10 mph 1019.6mb 65f
10:41am 8 10 mph 1019.6mb 64f
10:27am  -  1 mph 1020mb 61f
10:13am 1 2 mph 1020.1mb 61f
10:00am 2
mph
1020.3mb 60f
9:46am 1 2 mph 1020.1mb 60f
9:42am  -  2 mph 1020.1mb 60f
9:32am 5
mph
1020.1mb 59f
9:15am  -  1 mph 1020mb 61f
9:01am 3 5 mph 1019.8mb 59f
8:47am 2
mph
1019.6mb 59f
8:33am  -  1 mph 1019.3mb 59f
8:30am 2
mph
1019.4mb 58f
8:20am  -  1 mph 1019.3mb 58f
8:16am 1 2 mph 1019.3mb 57f
8:02am 5
mph
1019.4mb 56f
7:48am 2 3 mph 1019.1mb 57f
7:35am 3 5 mph 1019.1mb 55f
7:21am 6
mph
1019.1mb 54f
7:17am 5 6 mph 1018.9mb 54f
7:07am  -  1 mph 1018.9mb 55f
7:03am 3 5 mph 1018.9mb 54f
6:50am 2 5 mph 1018.8mb 54f
6:36am 6 7 mph 1018.6mb 53f
6:22am 6
mph
1018.4mb 56f
6:08am 7 8 mph 1018.2mb 57f
5:55am 5 6 mph 1018.2mb 57f
5:51am 6 7 mph 1018.2mb 57f
5:41am 2 3 mph 1018.2mb 57f
5:37am 2 3 mph 1018.2mb 58f
5:23am 5 6 mph 1018.2mb 59f
5:10am 5
mph
1018.2mb 59f
4:56am 3 5 mph 1018.2mb 58f
4:42am  -  1 mph 1018.1mb 58f
4:38am 1 2 mph 1018.1mb 58f
4:28am 3 5 mph 1017.9mb 59f
4:25am 2 3 mph 1017.9mb 58f
4:11am  -  mph 1017.9mb 58f
3:57am 3 5 mph 1017.9mb 59f
3:43am  -  2 mph 1017.9mb 57f
3:30am  -  2 mph 1018.1mb 56f
3:26am 1 2 mph 1018.1mb 57f
3:16am  -  1 mph 1018.1mb 56f
3:12am  -  1 mph 1018.1mb 56f
2:58am  -  1 mph 1018.2mb 56f
2:45am 1 2 mph 1018.2mb 56f
2:31am 2
mph
1018.4mb 56f
2:17am 2
mph
1018.4mb 56f
2:13am 1 2 mph 1018.4mb 57f
2:03am 2
mph
1018.4mb 57f
2:00am  -  1 mph 1018.4mb 57f
1:46am 2
mph
1018.2mb 57f
1:32am 1 2 mph 1018.2mb 57f
1:18am 2 3 mph 1018.2mb 56f
1:05am  -  1 mph 1018.2mb 57f
1:01am 2
mph
1018.1mb 57f
12:47am 2 3 mph 1018.1mb 57f
12:33am  -  1 mph 1018.1mb 57f
12:20am 2
mph
1017.9mb 57f
12:06am 3 5 mph 1017.9mb 58f
Thu 09/22 11:52pm 2 3 mph 1017.9mb 58f
11:48pm 2
mph
1017.9mb 58f
11:38pm 1 2 mph 1017.9mb 59f
11:35pm 2 3 mph 1017.9mb 59f
11:21pm 2
mph
1017.9mb 60f
11:07pm 3 5 mph 1017.5mb 60f
10:53pm 5 6 mph 1017.4mb 59f
10:40pm 2 3 mph 1017.2mb 57f
10:36pm 2
mph
1017.2mb 57f
10:22pm 1 2 mph 1017.4mb 58f
10:08pm 1
mph
1017.2mb 58f
9:55pm 2
mph
1017mb 59f
9:41pm 2 3 mph 1016.9mb 58f
9:27pm 5 6 mph 1016.9mb 59f
9:23pm 3 5 mph 1016.9mb 59f
9:10pm 2 5 mph 1016.7mb 59f
8:56pm 2 3 mph 1016.5mb 59f
8:42pm 2 3 mph 1016.5mb 60f
8:28pm  -  1 mph 1016.3mb 60f
8:15pm 3 5 mph 1016.2mb 60f
8:11pm 3
mph
1016.2mb 60f
8:01pm 3 5 mph 1016mb 61f
7:57pm 7
mph
1016mb 61f
7:43pm  -  1 mph 1015.8mb 62f
7:30pm 8 9 mph 1015.6mb 63f
7:16pm 3 6 mph 1015.6mb 63f
7:02pm 6 7 mph 1015.6mb 63f
6:58pm 9 10 mph 1015.5mb 63f
6:48pm 5 8 mph 1015.8mb 64f
6:45pm 8 9 mph 1015.5mb 64f
6:31pm 11 16 mph 1015.8mb 64f
6:17pm 10 17 mph 1015.8mb 64f
6:03pm 5 6 mph 1015.8mb 64f
5:50pm 3 6 mph 1015.8mb 65f
5:46pm 5 8 mph 1015.8mb 65f
5:32pm 9 14 mph 1016.2mb 66f
5:18pm 13 17 mph 1016mb 67f
5:05pm 3 5 mph 1016mb 66f
4:51pm 9 11 mph 1015.8mb 66f
4:23pm 14 18 mph 1016.3mb 64f
4:20pm 17 22 mph 1016.2mb 64f
4:10pm 24 29 mph 1016mb 64f
4:06pm 18 23 mph 1016.5mb 64f
3:52pm 18 24 mph 1016.3mb 64f
3:38pm 23 26 mph 1016.7mb 64f
3:25pm 21 31 mph 1016.5mb 65f
3:11pm 25 29 mph 1016.3mb 64f
3:07pm 25 34 mph 1016.3mb 64f
2:57pm 30 34 mph 1016.3mb 64f
2:53pm 26 31 mph 1016.5mb 64f
2:40pm 28 32 mph 1016.7mb 64f
2:26pm 26 31 mph 1017mb 64f
2:12pm 26 34 mph 1017.2mb 64f
1:58pm 25 29 mph 1017.2mb 64f
1:55pm 24 26 mph 1017.2mb 64f
1:45pm 20 25 mph 1017.2mb 65f
1:41pm 26 29 mph 1017.2mb 64f
1:27pm 22 26 mph 1017.2mb 65f
1:13pm 20 24 mph 1017.2mb 65f
1:00pm 23 25 mph 1017.5mb 65f
12:46pm 16 18 mph 1017.7mb 65f
12:42pm 20 24 mph 1017.4mb 65f
12:28pm 21 25 mph 1017.7mb 64f
12:14pm 21 25 mph 1017.9mb 64f
12:01pm 20 21 mph 1017.7mb 65f
11:47am 16 17 mph 1017.9mb 65f
11:43am 16 17 mph 1017.9mb 65f
11:33am 15 17 mph 1017.9mb 65f
11:29am 5 10 mph 1018.1mb 67f
11:16am 8 13 mph 1017.9mb 67f
11:02am 9 15 mph 1018.1mb 66f
10:48am 8 11 mph 1018.1mb 65f
10:34am 8 10 mph 1018.4mb 65f
10:31am 11 16 mph 1018.1mb 64f
10:21am 14 15 mph 1018.4mb 62f
10:17am 11 14 mph 1018.2mb 62f
10:03am 6 7 mph 1018.2mb 63f
9:49am 2 5 mph 1017.9mb 63f
9:36am 8 10 mph 1017.9mb 62f
9:22am 2
mph
1017.7mb 62f
9:18am  -  1 mph 1017.7mb 61f
9:08am 8
mph
1017.7mb 60f
9:04am 10 11 mph 1017.5mb 59f
8:51am 2
mph
1017.7mb 59f
8:37am 1 2 mph 1017.7mb 58f
8:23am 8
mph
1017.4mb 57f
8:09am 8
mph
1017.4mb 56f
8:06am 8 9 mph 1017.2mb 55f
7:56am 3 5 mph 1017.4mb 54f
7:52am 5 6 mph 1017.4mb 55f
7:38am 2 5 mph 1017.2mb 53f
7:24am 3 5 mph 1017.2mb 51f
7:11am 2 3 mph 1016.9mb 52f
6:57am 2 3 mph 1016.5mb 52f
6:53am 2
mph
1016.5mb 52f
6:43am 2 3 mph 1016.7mb 52f
6:39am 3
mph
1016.5mb 52f
6:26am 7 8 mph 1016.5mb 52f
6:12am 5 6 mph 1016.3mb 52f
5:58am 2
mph
1016mb 52f
5:44am 2 5 mph 1015.8mb 53f
5:41am  -  2 mph 1015.8mb 53f
5:31am 3 5 mph 1015.6mb 53f
5:27am 3 5 mph 1015.6mb 53f
5:13am 6 8 mph 1015.6mb 53f